sensor_id;sensor_type;location;lat;lon;timestamp;temperature;humidity
9486;DHT22;4781;48.776;9.200;2023-05-10T00:00:50;13.40;99.90
9486;DHT22;4781;48.776;9.200;2023-05-10T00:03:17;13.40;99.90
9486;DHT22;4781;48.776;9.200;2023-05-10T00:05:45;13.40;99.90
9486;DHT22;4781;48.776;9.200;2023-05-10T00:08:13;13.30;99.90
9486;DHT22;4781;48.776;9.200;2023-05-10T00:10:40;13.30;99.90
9486;DHT22;4781;48.776;9.200;2023-05-10T00:13:08;13.20;99.90
9486;DHT22;4781;48.776;9.200;2023-05-10T00:15:35;13.20;99.90
9486;DHT22;4781;48.776;9.200;2023-05-10T00:18:03;13.20;99.90
9486;DHT22;4781;48.776;9.200;2023-05-10T00:20:31;13.10;99.90
9486;DHT22;4781;48.776;9.200;2023-05-10T00:22:58;13.10;99.90
9486;DHT22;4781;48.776;9.200;2023-05-10T00:25:26;13.00;99.90
9486;DHT22;4781;48.776;9.200;2023-05-10T00:27:53;13.10;99.90
9486;DHT22;4781;48.776;9.200;2023-05-10T00:30:23;13.00;99.90
9486;DHT22;4781;48.776;9.200;2023-05-10T00:32:51;13.00;99.90
9486;DHT22;4781;48.776;9.200;2023-05-10T00:35:21;12.90;99.90
9486;DHT22;4781;48.776;9.200;2023-05-10T00:37:49;12.80;99.90
9486;DHT22;4781;48.776;9.200;2023-05-10T00:40:16;12.80;99.90
9486;DHT22;4781;48.776;9.200;2023-05-10T00:42:44;12.80;99.90
9486;DHT22;4781;48.776;9.200;2023-05-10T00:45:11;12.80;99.90
9486;DHT22;4781;48.776;9.200;2023-05-10T00:47:40;12.70;99.90
9486;DHT22;4781;48.776;9.200;2023-05-10T00:50:08;12.70;99.90
9486;DHT22;4781;48.776;9.200;2023-05-10T00:52:36;12.70;99.90
9486;DHT22;4781;48.776;9.200;2023-05-10T00:55:04;12.70;99.90
9486;DHT22;4781;48.776;9.200;2023-05-10T00:57:32;12.60;99.90
9486;DHT22;4781;48.776;9.200;2023-05-10T01:00:00;12.60;99.90
9486;DHT22;4781;48.776;9.200;2023-05-10T01:02:29;12.60;99.90
9486;DHT22;4781;48.776;9.200;2023-05-10T01:04:57;12.50;99.90
9486;DHT22;4781;48.776;9.200;2023-05-10T01:07:24;12.60;99.90
9486;DHT22;4781;48.776;9.200;2023-05-10T01:09:52;12.60;99.90
9486;DHT22;4781;48.776;9.200;2023-05-10T01:12:20;12.60;99.90
9486;DHT22;4781;48.776;9.200;2023-05-10T01:14:48;12.50;99.90
9486;DHT22;4781;48.776;9.200;2023-05-10T01:17:16;12.50;99.90
9486;DHT22;4781;48.776;9.200;2023-05-10T01:19:43;12.50;99.90
9486;DHT22;4781;48.776;9.200;2023-05-10T01:22:27;12.60;99.90
9486;DHT22;4781;48.776;9.200;2023-05-10T01:28:00;12.50;99.90
9486;DHT22;4781;48.776;9.200;2023-05-10T01:33:35;12.40;99.90
9486;DHT22;4781;48.776;9.200;2023-05-10T01:39:03;12.40;99.90
9486;DHT22;4781;48.776;9.200;2023-05-10T01:42:19;12.40;99.90
9486;DHT22;4781;48.776;9.200;2023-05-10T01:47:43;12.40;99.90
9486;DHT22;4781;48.776;9.200;2023-05-10T01:50:18;12.30;99.90
9486;DHT22;4781;48.776;9.200;2023-05-10T01:52:42;12.30;99.90
9486;DHT22;4781;48.776;9.200;2023-05-10T01:55:14;12.30;99.90
9486;DHT22;4781;48.776;9.200;2023-05-10T01:57:44;12.30;99.90
9486;DHT22;4781;48.776;9.200;2023-05-10T02:00:14;12.30;99.90
9486;DHT22;4781;48.776;9.200;2023-05-10T02:02:47;12.30;99.90
9486;DHT22;4781;48.776;9.200;2023-05-10T02:05:17;12.30;99.90
9486;DHT22;4781;48.776;9.200;2023-05-10T02:07:46;12.20;99.90
9486;DHT22;4781;48.776;9.200;2023-05-10T02:10:14;12.20;99.90
9486;DHT22;4781;48.776;9.200;2023-05-10T02:12:46;12.20;99.90
9486;DHT22;4781;48.776;9.200;2023-05-10T02:15:17;12.20;99.90
9486;DHT22;4781;48.776;9.200;2023-05-10T02:17:47;12.20;99.90
9486;DHT22;4781;48.776;9.200;2023-05-10T02:20:16;12.20;99.90
9486;DHT22;4781;48.776;9.200;2023-05-10T02:22:48;12.20;99.90
9486;DHT22;4781;48.776;9.200;2023-05-10T02:25:18;12.10;99.90
9486;DHT22;4781;48.776;9.200;2023-05-10T02:27:47;12.10;99.90
9486;DHT22;4781;48.776;9.200;2023-05-10T02:30:16;12.10;99.90
9486;DHT22;4781;48.776;9.200;2023-05-10T02:32:44;12.10;99.90
9486;DHT22;4781;48.776;9.200;2023-05-10T02:35:13;12.10;99.90
9486;DHT22;4781;48.776;9.200;2023-05-10T02:37:41;12.10;99.90
9486;DHT22;4781;48.776;9.200;2023-05-10T02:40:10;12.10;99.90
9486;DHT22;4781;48.776;9.200;2023-05-10T02:42:44;12.10;99.90
9486;DHT22;4781;48.776;9.200;2023-05-10T02:45:15;12.10;99.90
9486;DHT22;4781;48.776;9.200;2023-05-10T02:47:47;12.10;99.90
9486;DHT22;4781;48.776;9.200;2023-05-10T02:50:15;12.10;99.90
9486;DHT22;4781;48.776;9.200;2023-05-10T02:52:52;12.10;99.90
9486;DHT22;4781;48.776;9.200;2023-05-10T02:58:14;12.10;99.90
9486;DHT22;4781;48.776;9.200;2023-05-10T03:00:41;12.10;99.90
9486;DHT22;4781;48.776;9.200;2023-05-10T03:03:09;12.10;99.90
9486;DHT22;4781;48.776;9.200;2023-05-10T03:05:36;12.20;99.90
9486;DHT22;4781;48.776;9.200;2023-05-10T03:08:04;12.20;99.90
9486;DHT22;4781;48.776;9.200;2023-05-10T03:10:33;12.20;99.90
9486;DHT22;4781;48.776;9.200;2023-05-10T03:13:15;12.20;99.90
9486;DHT22;4781;48.776;9.200;2023-05-10T03:15:58;12.20;99.90
9486;DHT22;4781;48.776;9.200;2023-05-10T03:18:33;12.10;99.90
9486;DHT22;4781;48.776;9.200;2023-05-10T03:21:03;12.10;99.90
9486;DHT22;4781;48.776;9.200;2023-05-10T03:23:35;12.20;99.90
9486;DHT22;4781;48.776;9.200;2023-05-10T03:26:03;12.20;99.90
9486;DHT22;4781;48.776;9.200;2023-05-10T03:28:32;12.20;99.90
9486;DHT22;4781;48.776;9.200;2023-05-10T03:31:00;12.20;99.90
9486;DHT22;4781;48.776;9.200;2023-05-10T03:33:29;12.20;99.90
9486;DHT22;4781;48.776;9.200;2023-05-10T03:35:56;12.20;99.90
9486;DHT22;4781;48.776;9.200;2023-05-10T03:38:24;12.20;99.90
9486;DHT22;4781;48.776;9.200;2023-05-10T03:40:52;12.20;99.90
9486;DHT22;4781;48.776;9.200;2023-05-10T03:43:19;12.20;99.90
9486;DHT22;4781;48.776;9.200;2023-05-10T03:45:47;12.20;99.90
9486;DHT22;4781;48.776;9.200;2023-05-10T03:48:16;12.20;99.90
9486;DHT22;4781;48.776;9.200;2023-05-10T03:50:46;12.20;99.90
9486;DHT22;4781;48.776;9.200;2023-05-10T03:53:15;12.20;99.90
9486;DHT22;4781;48.776;9.200;2023-05-10T03:55:43;12.20;99.90
9486;DHT22;4781;48.776;9.200;2023-05-10T03:58:11;12.20;99.90
9486;DHT22;4781;48.776;9.200;2023-05-10T04:00:39;12.10;99.90
9486;DHT22;4781;48.776;9.200;2023-05-10T04:03:08;12.20;99.90
9486;DHT22;4781;48.776;9.200;2023-05-10T04:05:36;12.10;99.90
9486;DHT22;4781;48.776;9.200;2023-05-10T04:08:04;12.10;99.90
9486;DHT22;4781;48.776;9.200;2023-05-10T04:10:32;12.10;99.90
9486;DHT22;4781;48.776;9.200;2023-05-10T04:12:59;12.10;99.90
9486;DHT22;4781;48.776;9.200;2023-05-10T04:15:27;12.10;99.90
9486;DHT22;4781;48.776;9.200;2023-05-10T04:17:55;12.10;99.90
9486;DHT22;4781;48.776;9.200;2023-05-10T04:20:22;12.10;99.90
9486;DHT22;4781;48.776;9.200;2023-05-10T04:22:52;12.10;99.90
9486;DHT22;4781;48.776;9.200;2023-05-10T04:25:20;12.10;99.90
9486;DHT22;4781;48.776;9.200;2023-05-10T04:27:47;12.10;99.90
9486;DHT22;4781;48.776;9.200;2023-05-10T04:30:15;12.10;99.90
9486;DHT22;4781;48.776;9.200;2023-05-10T04:32:43;12.10;99.90
9486;DHT22;4781;48.776;9.200;2023-05-10T04:35:10;12.10;99.90
9486;DHT22;4781;48.776;9.200;2023-05-10T04:37:38;12.20;99.90
9486;DHT22;4781;48.776;9.200;2023-05-10T04:40:06;12.20;99.90
9486;DHT22;4781;48.776;9.200;2023-05-10T04:42:34;12.20;99.90
9486;DHT22;4781;48.776;9.200;2023-05-10T04:45:01;12.20;99.90
9486;DHT22;4781;48.776;9.200;2023-05-10T04:47:29;12.20;99.90
9486;DHT22;4781;48.776;9.200;2023-05-10T04:49:57;12.20;99.90
9486;DHT22;4781;48.776;9.200;2023-05-10T04:52:25;12.20;99.90
9486;DHT22;4781;48.776;9.200;2023-05-10T04:54:52;12.30;99.90
9486;DHT22;4781;48.776;9.200;2023-05-10T04:57:20;12.30;99.90
9486;DHT22;4781;48.776;9.200;2023-05-10T04:59:48;12.20;99.90
9486;DHT22;4781;48.776;9.200;2023-05-10T05:02:15;12.30;99.90
9486;DHT22;4781;48.776;9.200;2023-05-10T05:04:43;12.30;99.90
9486;DHT22;4781;48.776;9.200;2023-05-10T05:07:10;12.30;99.90
9486;DHT22;4781;48.776;9.200;2023-05-10T05:09:38;12.30;99.90
9486;DHT22;4781;48.776;9.200;2023-05-10T05:12:06;12.40;99.90
9486;DHT22;4781;48.776;9.200;2023-05-10T05:14:33;12.40;99.90
9486;DHT22;4781;48.776;9.200;2023-05-10T05:17:01;12.40;99.90
9486;DHT22;4781;48.776;9.200;2023-05-10T05:19:31;12.50;99.90
9486;DHT22;4781;48.776;9.200;2023-05-10T05:21:59;12.50;99.90
9486;DHT22;4781;48.776;9.200;2023-05-10T05:24:26;12.50;99.90
9486;DHT22;4781;48.776;9.200;2023-05-10T05:26:54;12.60;99.90
9486;DHT22;4781;48.776;9.200;2023-05-10T05:29:21;12.60;99.90
9486;DHT22;4781;48.776;9.200;2023-05-10T05:31:49;12.60;99.90
9486;DHT22;4781;48.776;9.200;2023-05-10T05:34:17;12.60;99.90
9486;DHT22;4781;48.776;9.200;2023-05-10T05:36:44;12.70;99.90
9486;DHT22;4781;48.776;9.200;2023-05-10T05:39:12;12.60;99.90
9486;DHT22;4781;48.776;9.200;2023-05-10T05:41:39;12.70;99.90
9486;DHT22;4781;48.776;9.200;2023-05-10T05:44:07;12.70;99.90
9486;DHT22;4781;48.776;9.200;2023-05-10T05:46:35;12.70;99.90
9486;DHT22;4781;48.776;9.200;2023-05-10T05:49:02;12.70;99.90
9486;DHT22;4781;48.776;9.200;2023-05-10T05:51:30;12.80;99.90
9486;DHT22;4781;48.776;9.200;2023-05-10T05:53:57;12.80;99.90
9486;DHT22;4781;48.776;9.200;2023-05-10T05:56:25;12.80;99.90
9486;DHT22;4781;48.776;9.200;2023-05-10T05:58:53;12.80;99.90
9486;DHT22;4781;48.776;9.200;2023-05-10T06:01:20;12.80;99.90
9486;DHT22;4781;48.776;9.200;2023-05-10T06:03:48;12.80;99.90
9486;DHT22;4781;48.776;9.200;2023-05-10T06:06:16;12.90;99.90
9486;DHT22;4781;48.776;9.200;2023-05-10T06:08:43;12.90;99.90
9486;DHT22;4781;48.776;9.200;2023-05-10T06:11:11;12.90;99.90
9486;DHT22;4781;48.776;9.200;2023-05-10T06:13:38;12.90;99.90
9486;DHT22;4781;48.776;9.200;2023-05-10T06:16:06;13.00;99.90
9486;DHT22;4781;48.776;9.200;2023-05-10T06:18:34;13.00;99.90
9486;DHT22;4781;48.776;9.200;2023-05-10T06:21:01;13.10;99.90
9486;DHT22;4781;48.776;9.200;2023-05-10T06:23:29;13.10;99.90
9486;DHT22;4781;48.776;9.200;2023-05-10T06:25:57;13.10;99.90
9486;DHT22;4781;48.776;9.200;2023-05-10T06:28:24;13.10;99.90
9486;DHT22;4781;48.776;9.200;2023-05-10T06:30:52;13.20;99.90
9486;DHT22;4781;48.776;9.200;2023-05-10T06:33:20;13.10;99.90
9486;DHT22;4781;48.776;9.200;2023-05-10T06:35:48;13.20;99.90
9486;DHT22;4781;48.776;9.200;2023-05-10T06:38:16;13.20;99.90
9486;DHT22;4781;48.776;9.200;2023-05-10T06:40:43;13.20;99.90
9486;DHT22;4781;48.776;9.200;2023-05-10T06:43:11;13.20;99.90
9486;DHT22;4781;48.776;9.200;2023-05-10T06:45:39;13.10;99.90
9486;DHT22;4781;48.776;9.200;2023-05-10T06:48:07;13.10;99.90
9486;DHT22;4781;48.776;9.200;2023-05-10T06:50:35;13.10;99.90
9486;DHT22;4781;48.776;9.200;2023-05-10T06:53:02;13.10;99.90
9486;DHT22;4781;48.776;9.200;2023-05-10T06:55:30;13.20;99.90
9486;DHT22;4781;48.776;9.200;2023-05-10T06:57:58;13.20;99.90
9486;DHT22;4781;48.776;9.200;2023-05-10T07:00:25;13.20;99.90
9486;DHT22;4781;48.776;9.200;2023-05-10T07:02:53;13.10;99.90
9486;DHT22;4781;48.776;9.200;2023-05-10T07:05:21;13.10;99.90
9486;DHT22;4781;48.776;9.200;2023-05-10T07:07:49;13.10;99.90
9486;DHT22;4781;48.776;9.200;2023-05-10T07:10:16;13.10;99.90
9486;DHT22;4781;48.776;9.200;2023-05-10T07:12:44;13.10;99.90
9486;DHT22;4781;48.776;9.200;2023-05-10T07:15:12;13.20;99.90
9486;DHT22;4781;48.776;9.200;2023-05-10T07:17:39;13.20;99.90
9486;DHT22;4781;48.776;9.200;2023-05-10T07:20:08;13.30;99.90
9486;DHT22;4781;48.776;9.200;2023-05-10T07:22:35;13.40;99.90
9486;DHT22;4781;48.776;9.200;2023-05-10T07:25:03;13.40;99.90
9486;DHT22;4781;48.776;9.200;2023-05-10T07:27:31;13.50;99.90
9486;DHT22;4781;48.776;9.200;2023-05-10T07:29:59;13.60;99.90
9486;DHT22;4781;48.776;9.200;2023-05-10T07:32:27;13.70;99.90
9486;DHT22;4781;48.776;9.200;2023-05-10T07:34:54;13.80;99.90
9486;DHT22;4781;48.776;9.200;2023-05-10T07:37:22;13.80;99.90
9486;DHT22;4781;48.776;9.200;2023-05-10T07:39:49;13.90;99.90
9486;DHT22;4781;48.776;9.200;2023-05-10T07:42:17;13.90;99.90
9486;DHT22;4781;48.776;9.200;2023-05-10T07:44:45;14.00;99.90
9486;DHT22;4781;48.776;9.200;2023-05-10T07:47:12;14.00;99.90
9486;DHT22;4781;48.776;9.200;2023-05-10T07:49:40;14.00;99.90
9486;DHT22;4781;48.776;9.200;2023-05-10T07:52:07;14.00;99.90
9486;DHT22;4781;48.776;9.200;2023-05-10T07:54:35;14.10;99.90
9486;DHT22;4781;48.776;9.200;2023-05-10T07:57:02;14.10;99.90
9486;DHT22;4781;48.776;9.200;2023-05-10T07:59:30;14.20;99.90
9486;DHT22;4781;48.776;9.200;2023-05-10T08:01:58;14.20;99.90
9486;DHT22;4781;48.776;9.200;2023-05-10T08:04:27;14.10;99.90
9486;DHT22;4781;48.776;9.200;2023-05-10T08:06:54;14.00;99.90
9486;DHT22;4781;48.776;9.200;2023-05-10T08:09:22;14.10;99.90
9486;DHT22;4781;48.776;9.200;2023-05-10T08:11:50;14.10;99.90
9486;DHT22;4781;48.776;9.200;2023-05-10T08:14:18;14.10;99.90
9486;DHT22;4781;48.776;9.200;2023-05-10T08:16:46;14.10;99.90
9486;DHT22;4781;48.776;9.200;2023-05-10T08:19:13;14.10;99.90
9486;DHT22;4781;48.776;9.200;2023-05-10T08:21:43;14.20;99.90
9486;DHT22;4781;48.776;9.200;2023-05-10T08:24:10;14.10;99.90
9486;DHT22;4781;48.776;9.200;2023-05-10T08:26:38;14.10;99.90
9486;DHT22;4781;48.776;9.200;2023-05-10T08:29:06;14.20;99.90
9486;DHT22;4781;48.776;9.200;2023-05-10T08:31:33;14.20;99.90
9486;DHT22;4781;48.776;9.200;2023-05-10T08:34:01;14.10;99.90
9486;DHT22;4781;48.776;9.200;2023-05-10T08:36:29;14.00;99.90
9486;DHT22;4781;48.776;9.200;2023-05-10T08:38:56;14.10;99.90
9486;DHT22;4781;48.776;9.200;2023-05-10T08:41:24;14.10;99.90
9486;DHT22;4781;48.776;9.200;2023-05-10T08:43:53;14.20;99.90
9486;DHT22;4781;48.776;9.200;2023-05-10T08:46:22;14.10;99.90
9486;DHT22;4781;48.776;9.200;2023-05-10T08:48:51;14.10;99.90
9486;DHT22;4781;48.776;9.200;2023-05-10T08:51:22;14.00;99.90
9486;DHT22;4781;48.776;9.200;2023-05-10T08:53:49;14.00;99.90
9486;DHT22;4781;48.776;9.200;2023-05-10T08:56:16;14.10;99.90
9486;DHT22;4781;48.776;9.200;2023-05-10T08:58:44;14.20;99.90
9486;DHT22;4781;48.776;9.200;2023-05-10T09:01:13;14.30;99.90
9486;DHT22;4781;48.776;9.200;2023-05-10T09:03:41;14.40;99.90
9486;DHT22;4781;48.776;9.200;2023-05-10T09:06:09;14.40;99.90
9486;DHT22;4781;48.776;9.200;2023-05-10T09:08:38;14.50;99.90
9486;DHT22;4781;48.776;9.200;2023-05-10T09:11:06;14.60;99.90
9486;DHT22;4781;48.776;9.200;2023-05-10T09:13:35;14.70;99.90
9486;DHT22;4781;48.776;9.200;2023-05-10T09:16:03;14.70;99.90
9486;DHT22;4781;48.776;9.200;2023-05-10T09:18:31;14.70;99.90
9486;DHT22;4781;48.776;9.200;2023-05-10T09:20:59;14.70;99.90
9486;DHT22;4781;48.776;9.200;2023-05-10T09:23:26;14.70;99.90
9486;DHT22;4781;48.776;9.200;2023-05-10T09:26:03;14.70;99.90
9486;DHT22;4781;48.776;9.200;2023-05-10T09:28:34;14.70;99.90
9486;DHT22;4781;48.776;9.200;2023-05-10T09:31:03;14.60;99.90
9486;DHT22;4781;48.776;9.200;2023-05-10T09:33:43;14.60;99.90
9486;DHT22;4781;48.776;9.200;2023-05-10T09:36:06;14.60;99.90
9486;DHT22;4781;48.776;9.200;2023-05-10T09:38:50;14.50;99.90
9486;DHT22;4781;48.776;9.200;2023-05-10T09:41:20;14.50;99.90
9486;DHT22;4781;48.776;9.200;2023-05-10T09:43:48;14.70;99.90
9486;DHT22;4781;48.776;9.200;2023-05-10T09:46:16;14.80;99.90
9486;DHT22;4781;48.776;9.200;2023-05-10T09:48:45;14.90;99.90
9486;DHT22;4781;48.776;9.200;2023-05-10T09:51:23;14.90;99.90
9486;DHT22;4781;48.776;9.200;2023-05-10T09:54:13;14.80;99.90
9486;DHT22;4781;48.776;9.200;2023-05-10T09:56:42;14.90;99.90
9486;DHT22;4781;48.776;9.200;2023-05-10T09:59:11;14.90;99.90
9486;DHT22;4781;48.776;9.200;2023-05-10T10:01:39;15.00;99.90
9486;DHT22;4781;48.776;9.200;2023-05-10T10:04:08;14.90;99.90
9486;DHT22;4781;48.776;9.200;2023-05-10T10:06:42;15.00;99.90
9486;DHT22;4781;48.776;9.200;2023-05-10T10:09:07;15.10;99.90
9486;DHT22;4781;48.776;9.200;2023-05-10T10:11:36;15.10;99.90
9486;DHT22;4781;48.776;9.200;2023-05-10T10:14:04;15.10;99.90
9486;DHT22;4781;48.776;9.200;2023-05-10T10:16:32;15.10;99.90
9486;DHT22;4781;48.776;9.200;2023-05-10T10:19:01;15.10;99.90
9486;DHT22;4781;48.776;9.200;2023-05-10T10:21:28;15.10;99.90
9486;DHT22;4781;48.776;9.200;2023-05-10T10:23:57;15.00;99.90
9486;DHT22;4781;48.776;9.200;2023-05-10T10:26:25;15.00;99.90
9486;DHT22;4781;48.776;9.200;2023-05-10T10:29:19;15.00;99.90
9486;DHT22;4781;48.776;9.200;2023-05-10T10:34:41;15.30;99.90
9486;DHT22;4781;48.776;9.200;2023-05-10T10:37:08;15.40;99.90
9486;DHT22;4781;48.776;9.200;2023-05-10T10:39:36;15.40;99.90
9486;DHT22;4781;48.776;9.200;2023-05-10T10:42:04;15.50;99.90
9486;DHT22;4781;48.776;9.200;2023-05-10T10:44:35;15.50;99.90
9486;DHT22;4781;48.776;9.200;2023-05-10T10:52:28;15.40;99.90
9486;DHT22;4781;48.776;9.200;2023-05-10T10:55:10;15.40;99.90
9486;DHT22;4781;48.776;9.200;2023-05-10T10:57:51;15.30;99.90
9486;DHT22;4781;48.776;9.200;2023-05-10T11:03:06;15.00;99.90
9486;DHT22;4781;48.776;9.200;2023-05-10T11:05:37;14.90;99.90
9486;DHT22;4781;48.776;9.200;2023-05-10T11:08:14;14.80;99.90
9486;DHT22;4781;48.776;9.200;2023-05-10T11:10:39;14.60;99.90
9486;DHT22;4781;48.776;9.200;2023-05-10T11:13:08;14.50;99.90
9486;DHT22;4781;48.776;9.200;2023-05-10T11:15:39;14.40;99.90
9486;DHT22;4781;48.776;9.200;2023-05-10T11:18:24;14.30;99.90
9486;DHT22;4781;48.776;9.200;2023-05-10T11:20:52;14.30;99.90
9486;DHT22;4781;48.776;9.200;2023-05-10T11:23:20;14.20;99.90
9486;DHT22;4781;48.776;9.200;2023-05-10T11:25:49;14.00;99.90
9486;DHT22;4781;48.776;9.200;2023-05-10T11:28:19;14.00;99.90
9486;DHT22;4781;48.776;9.200;2023-05-10T11:30:47;14.00;99.90
9486;DHT22;4781;48.776;9.200;2023-05-10T11:33:17;14.10;99.90
9486;DHT22;4781;48.776;9.200;2023-05-10T11:35:46;14.20;99.90
9486;DHT22;4781;48.776;9.200;2023-05-10T11:38:14;14.30;99.90
9486;DHT22;4781;48.776;9.200;2023-05-10T11:40:42;14.50;99.90
9486;DHT22;4781;48.776;9.200;2023-05-10T11:43:10;14.60;99.90
9486;DHT22;4781;48.776;9.200;2023-05-10T11:45:39;14.70;99.90
9486;DHT22;4781;48.776;9.200;2023-05-10T11:48:07;14.70;99.90
9486;DHT22;4781;48.776;9.200;2023-05-10T11:50:35;14.80;99.90
9486;DHT22;4781;48.776;9.200;2023-05-10T11:53:02;14.70;99.90
9486;DHT22;4781;48.776;9.200;2023-05-10T11:55:33;14.80;99.90
9486;DHT22;4781;48.776;9.200;2023-05-10T11:58:01;14.80;99.90
9486;DHT22;4781;48.776;9.200;2023-05-10T12:00:30;14.70;99.90
9486;DHT22;4781;48.776;9.200;2023-05-10T12:02:57;14.60;99.90
9486;DHT22;4781;48.776;9.200;2023-05-10T12:05:25;14.50;99.90
9486;DHT22;4781;48.776;9.200;2023-05-10T12:07:53;14.50;99.90
9486;DHT22;4781;48.776;9.200;2023-05-10T12:10:25;14.40;99.90
9486;DHT22;4781;48.776;9.200;2023-05-10T12:12:53;14.30;99.90
9486;DHT22;4781;48.776;9.200;2023-05-10T12:15:23;14.40;99.90
9486;DHT22;4781;48.776;9.200;2023-05-10T12:17:51;14.40;99.90
9486;DHT22;4781;48.776;9.200;2023-05-10T12:20:21;14.40;99.90
9486;DHT22;4781;48.776;9.200;2023-05-10T12:22:51;14.50;99.90
9486;DHT22;4781;48.776;9.200;2023-05-10T12:25:22;14.60;99.90
9486;DHT22;4781;48.776;9.200;2023-05-10T12:27:54;14.70;99.90
9486;DHT22;4781;48.776;9.200;2023-05-10T12:30:30;14.80;99.90
9486;DHT22;4781;48.776;9.200;2023-05-10T12:33:07;14.90;99.90
9486;DHT22;4781;48.776;9.200;2023-05-10T12:35:32;14.90;99.90
9486;DHT22;4781;48.776;9.200;2023-05-10T12:38:00;15.00;99.90
9486;DHT22;4781;48.776;9.200;2023-05-10T12:40:28;15.10;99.90
9486;DHT22;4781;48.776;9.200;2023-05-10T12:42:55;15.10;99.90
9486;DHT22;4781;48.776;9.200;2023-05-10T12:45:23;15.10;99.90
9486;DHT22;4781;48.776;9.200;2023-05-10T12:47:51;15.10;99.90
9486;DHT22;4781;48.776;9.200;2023-05-10T12:50:18;15.10;99.90
9486;DHT22;4781;48.776;9.200;2023-05-10T12:52:46;15.10;99.90
9486;DHT22;4781;48.776;9.200;2023-05-10T12:55:14;15.10;99.90
9486;DHT22;4781;48.776;9.200;2023-05-10T12:57:41;15.10;99.90
9486;DHT22;4781;48.776;9.200;2023-05-10T13:00:09;15.10;99.90
9486;DHT22;4781;48.776;9.200;2023-05-10T13:02:37;15.00;99.90
9486;DHT22;4781;48.776;9.200;2023-05-10T13:05:05;15.00;99.90
9486;DHT22;4781;48.776;9.200;2023-05-10T13:07:33;14.90;99.90
9486;DHT22;4781;48.776;9.200;2023-05-10T13:10:01;14.90;99.90
9486;DHT22;4781;48.776;9.200;2023-05-10T13:12:28;14.80;99.90
9486;DHT22;4781;48.776;9.200;2023-05-10T13:14:56;14.80;99.90
9486;DHT22;4781;48.776;9.200;2023-05-10T13:17:24;14.80;99.90
9486;DHT22;4781;48.776;9.200;2023-05-10T13:19:52;14.80;99.90
9486;DHT22;4781;48.776;9.200;2023-05-10T13:22:20;14.70;99.90
9486;DHT22;4781;48.776;9.200;2023-05-10T13:24:47;14.70;99.90
9486;DHT22;4781;48.776;9.200;2023-05-10T13:27:15;14.70;99.90
9486;DHT22;4781;48.776;9.200;2023-05-10T13:29:43;14.70;99.90
9486;DHT22;4781;48.776;9.200;2023-05-10T13:32:10;14.80;99.90
9486;DHT22;4781;48.776;9.200;2023-05-10T13:34:38;14.90;99.90
9486;DHT22;4781;48.776;9.200;2023-05-10T13:37:05;15.00;99.90
9486;DHT22;4781;48.776;9.200;2023-05-10T13:39:33;15.20;99.90
9486;DHT22;4781;48.776;9.200;2023-05-10T13:42:01;15.30;99.90
9486;DHT22;4781;48.776;9.200;2023-05-10T13:44:29;15.30;99.90
9486;DHT22;4781;48.776;9.200;2023-05-10T13:46:57;15.30;99.90
9486;DHT22;4781;48.776;9.200;2023-05-10T13:49:24;15.30;99.90
9486;DHT22;4781;48.776;9.200;2023-05-10T13:51:52;15.30;99.90
9486;DHT22;4781;48.776;9.200;2023-05-10T13:54:19;15.20;99.90
9486;DHT22;4781;48.776;9.200;2023-05-10T13:56:48;15.10;99.90
9486;DHT22;4781;48.776;9.200;2023-05-10T13:59:16;15.00;99.90
9486;DHT22;4781;48.776;9.200;2023-05-10T14:01:43;15.10;99.90
9486;DHT22;4781;48.776;9.200;2023-05-10T14:04:11;15.10;99.90
9486;DHT22;4781;48.776;9.200;2023-05-10T14:06:39;15.20;99.90
9486;DHT22;4781;48.776;9.200;2023-05-10T14:09:06;15.20;99.90
9486;DHT22;4781;48.776;9.200;2023-05-10T14:11:34;15.20;99.90
9486;DHT22;4781;48.776;9.200;2023-05-10T14:14:02;15.30;99.90
9486;DHT22;4781;48.776;9.200;2023-05-10T14:16:29;15.40;99.90
9486;DHT22;4781;48.776;9.200;2023-05-10T14:18:57;15.50;99.90
9486;DHT22;4781;48.776;9.200;2023-05-10T14:21:25;15.60;99.90
9486;DHT22;4781;48.776;9.200;2023-05-10T14:23:53;15.60;99.90
9486;DHT22;4781;48.776;9.200;2023-05-10T14:26:20;15.70;99.90
9486;DHT22;4781;48.776;9.200;2023-05-10T14:28:48;15.70;99.90
9486;DHT22;4781;48.776;9.200;2023-05-10T14:31:16;15.70;99.90
9486;DHT22;4781;48.776;9.200;2023-05-10T14:33:46;15.70;99.90
9486;DHT22;4781;48.776;9.200;2023-05-10T14:36:14;15.80;99.90
9486;DHT22;4781;48.776;9.200;2023-05-10T14:38:42;15.80;99.90
9486;DHT22;4781;48.776;9.200;2023-05-10T14:41:09;15.90;99.90
9486;DHT22;4781;48.776;9.200;2023-05-10T14:43:39;15.90;99.90
9486;DHT22;4781;48.776;9.200;2023-05-10T14:46:06;15.90;99.90
9486;DHT22;4781;48.776;9.200;2023-05-10T14:48:35;15.90;99.90
9486;DHT22;4781;48.776;9.200;2023-05-10T14:51:02;15.90;99.90
9486;DHT22;4781;48.776;9.200;2023-05-10T14:53:30;15.90;99.90
9486;DHT22;4781;48.776;9.200;2023-05-10T14:55:58;16.00;99.90
9486;DHT22;4781;48.776;9.200;2023-05-10T14:58:28;16.00;99.90
9486;DHT22;4781;48.776;9.200;2023-05-10T15:00:56;16.00;99.90
9486;DHT22;4781;48.776;9.200;2023-05-10T15:03:24;15.90;99.90
9486;DHT22;4781;48.776;9.200;2023-05-10T15:05:52;16.00;99.90
9486;DHT22;4781;48.776;9.200;2023-05-10T15:08:19;16.00;99.90
9486;DHT22;4781;48.776;9.200;2023-05-10T15:10:47;16.00;99.90
9486;DHT22;4781;48.776;9.200;2023-05-10T15:13:14;15.90;99.90
9486;DHT22;4781;48.776;9.200;2023-05-10T15:15:42;15.90;99.90
9486;DHT22;4781;48.776;9.200;2023-05-10T15:18:10;15.90;99.90
9486;DHT22;4781;48.776;9.200;2023-05-10T15:20:37;15.90;99.90
9486;DHT22;4781;48.776;9.200;2023-05-10T15:23:05;15.90;99.90
9486;DHT22;4781;48.776;9.200;2023-05-10T15:25:32;15.90;99.90
9486;DHT22;4781;48.776;9.200;2023-05-10T15:28:04;15.90;99.90
9486;DHT22;4781;48.776;9.200;2023-05-10T15:30:32;15.80;99.90
9486;DHT22;4781;48.776;9.200;2023-05-10T15:33:01;15.80;99.90
9486;DHT22;4781;48.776;9.200;2023-05-10T15:35:29;15.80;99.90
9486;DHT22;4781;48.776;9.200;2023-05-10T15:37:56;15.90;99.90
9486;DHT22;4781;48.776;9.200;2023-05-10T15:40:24;15.90;99.90
9486;DHT22;4781;48.776;9.200;2023-05-10T15:42:52;15.90;99.90
9486;DHT22;4781;48.776;9.200;2023-05-10T15:45:20;15.90;99.90
9486;DHT22;4781;48.776;9.200;2023-05-10T15:47:47;16.00;99.90
9486;DHT22;4781;48.776;9.200;2023-05-10T15:50:15;16.00;99.90
9486;DHT22;4781;48.776;9.200;2023-05-10T15:52:43;15.90;99.90
9486;DHT22;4781;48.776;9.200;2023-05-10T15:55:10;15.90;99.90
9486;DHT22;4781;48.776;9.200;2023-05-10T15:57:39;15.90;99.90
9486;DHT22;4781;48.776;9.200;2023-05-10T16:00:09;15.90;99.90
9486;DHT22;4781;48.776;9.200;2023-05-10T16:02:38;15.90;99.90
9486;DHT22;4781;48.776;9.200;2023-05-10T16:05:06;15.90;99.90
9486;DHT22;4781;48.776;9.200;2023-05-10T16:07:33;15.90;99.90
9486;DHT22;4781;48.776;9.200;2023-05-10T16:10:01;15.80;99.90
9486;DHT22;4781;48.776;9.200;2023-05-10T16:12:30;15.80;99.90
9486;DHT22;4781;48.776;9.200;2023-05-10T16:14:58;15.80;99.90
9486;DHT22;4781;48.776;9.200;2023-05-10T16:17:26;15.70;99.90
9486;DHT22;4781;48.776;9.200;2023-05-10T16:19:53;15.70;99.90
9486;DHT22;4781;48.776;9.200;2023-05-10T16:22:21;15.70;99.90
9486;DHT22;4781;48.776;9.200;2023-05-10T16:24:50;15.70;99.90
9486;DHT22;4781;48.776;9.200;2023-05-10T16:27:19;15.60;99.90
9486;DHT22;4781;48.776;9.200;2023-05-10T16:29:47;15.60;99.90
9486;DHT22;4781;48.776;9.200;2023-05-10T16:32:14;15.60;99.90
9486;DHT22;4781;48.776;9.200;2023-05-10T16:34:42;15.60;99.90
9486;DHT22;4781;48.776;9.200;2023-05-10T16:37:10;15.60;99.90